Time;durP1;ratioP1;P1;durP2;ratioP2;P2;SDS_P1;SDS_P2;PMS_P1;PMS_P2;Temp;Humidity;BMP_temperature;BMP_pressure;BME280_temperature;BME280_humidity;BME280_pressure;Samples;Min_cycle;Max_cycle;Signal;HPM_P1;HPM_P2
2022/04/21 16:18:06;;;;;;;5.47;1.02;;;22.90;51.30;;;;;;5203322;27;20445;-51
2022/04/21 16:20:32;;;;;;;2.42;0.90;;;23.00;52.80;;;;;;5182215;27;20034;-48
2022/04/21 16:22:59;;;;;;;3.45;0.90;;;23.00;52.30;;;;;;5181658;27;20060;-49
2022/04/21 16:25:25;;;;;;;4.03;1.63;;;23.00;52.30;;;;;;5177804;27;20025;-51
2022/04/21 16:27:51;;;;;;;7.72;1.50;;;23.00;52.20;;;;;;5182336;27;20131;-48
2022/04/21 16:30:17;;;;;;;5.28;1.70;;;23.10;52.30;;;;;;5182115;27;20037;-49
2022/04/21 16:32:43;;;;;;;6.63;1.45;;;23.10;52.30;;;;;;5182234;27;20025;-47
2022/04/21 16:35:10;;;;;;;4.05;1.38;;;23.10;52.40;;;;;;5175368;27;20034;-49
2022/04/21 16:37:36;;;;;;;5.65;1.30;;;23.10;52.40;;;;;;5180268;27;20053;-50
2022/04/21 16:40:02;;;;;;;4.88;1.20;;;23.20;52.50;;;;;;5180235;27;20042;-50
2022/04/21 16:42:28;;;;;;;3.47;1.27;;;23.20;52.50;;;;;;5178563;27;20046;-48
2022/04/21 16:44:54;;;;;;;6.22;1.35;;;23.20;52.60;;;;;;5175662;27;20091;-49
2022/04/21 16:47:20;;;;;;;4.82;1.10;;;23.20;52.60;;;;;;5180120;27;20061;-47
2022/04/21 16:49:46;;;;;;;7.35;1.45;;;23.30;52.70;;;;;;5179803;27;20026;-49
2022/04/21 16:52:12;;;;;;;5.38;1.63;;;23.30;52.70;;;;;;5179980;27;20054;-50
2022/04/21 16:54:41;;;;;;;7.90;1.48;;;23.30;52.70;;;;;;5178242;27;20022;-48
2022/04/21 16:57:07;;;;;;;3.35;1.60;;;23.30;52.70;;;;;;5179769;27;20045;-47
2022/04/21 16:59:33;;;;;;;3.72;1.30;;;23.30;52.70;;;;;;5179534;27;20780;-49
2022/04/21 17:04:44;;;;;;;3.95;1.27;;;23.30;52.80;;;;;;5163698;27;20054;-51
2022/04/21 17:07:11;;;;;;;4.90;1.50;;;23.30;52.70;;;;;;5179709;27;20022;-51
2022/04/21 17:09:37;;;;;;;6.50;1.30;;;23.40;52.80;;;;;;5179736;27;20026;-49
2022/04/21 17:12:05;;;;;;;4.80;1.33;;;23.40;52.70;;;;;;5177757;27;20027;-52
2022/04/21 17:14:31;;;;;;;2.97;1.10;;;23.40;52.70;;;;;;5179096;27;20056;-50
2022/04/21 17:16:57;;;;;;;5.68;1.33;;;23.40;52.70;;;;;;5179246;27;20114;-53
2022/04/21 17:19:24;;;;;;;5.38;1.27;;;23.40;52.70;;;;;;5176734;27;20026;-49
2022/04/21 17:21:50;;;;;;;3.30;1.15;;;23.50;52.70;;;;;;5178983;27;20030;-48
2022/04/21 17:24:16;;;;;;;4.18;1.20;;;23.50;52.80;;;;;;5176497;27;20793;-49
2022/04/21 17:26:42;;;;;;;2.80;1.30;;;23.50;52.70;;;;;;5178652;27;20094;-48
2022/04/21 17:29:09;;;;;;;2.65;0.95;;;23.50;52.70;;;;;;5164600;27;20109;-52
2022/04/21 17:31:37;;;;;;;1.90;1.00;;;23.50;52.80;;;;;;5164756;27;20074;-50
2022/04/21 17:34:03;;;;;;;3.08;1.15;;;23.50;52.70;;;;;;5164937;27;20034;-48
2022/04/21 17:36:30;;;;;;;2.72;1.20;;;23.50;52.70;;;;;;5165067;27;20060;-53
2022/04/21 17:38:56;;;;;;;3.33;1.13;;;23.50;52.80;;;;;;5165377;27;20026;-49
2022/04/21 17:41:22;;;;;;;2.28;1.00;;;23.50;52.60;;;;;;5165179;27;20026;-50
2022/04/21 17:43:48;;;;;;;3.03;1.33;;;23.60;52.70;;;;;;5164847;27;20030;-52
2022/04/21 17:46:14;;;;;;;2.78;1.13;;;23.50;52.60;;;;;;5164943;27;20027;-49
2022/04/21 17:48:40;;;;;;;3.22;1.17;;;23.60;52.70;;;;;;5165000;27;20022;-52
2022/04/21 17:51:07;;;;;;;3.50;1.10;;;23.60;52.70;;;;;;5164202;27;20078;-49
2022/04/21 17:53:33;;;;;;;2.60;1.38;;;23.60;52.70;;;;;;5162968;27;20087;-47
2022/04/21 17:55:59;;;;;;;4.25;1.15;;;23.60;52.70;;;;;;5164088;27;20046;-50
2022/04/21 17:58:26;;;;;;;4.43;1.63;;;23.60;52.70;;;;;;5164727;27;20069;-49
2022/04/21 18:00:52;;;;;;;4.68;1.05;;;23.60;52.70;;;;;;5164527;27;20026;-51
2022/04/21 18:03:18;;;;;;;3.53;1.20;;;23.60;52.70;;;;;;5165526;27;20034;-52
2022/04/21 18:05:44;;;;;;;3.05;1.20;;;23.60;52.70;;;;;;5166256;27;20027;-50
2022/04/21 18:08:11;;;;;;;3.93;1.10;;;23.60;52.70;;;;;;5155381;27;20031;-51
2022/04/21 18:10:37;;;;;;;4.68;1.35;;;23.70;52.80;;;;;;5145832;27;20023;-46
2022/04/21 18:13:03;;;;;;;3.85;1.23;;;23.70;52.80;;;;;;5145984;27;20031;-49
2022/04/21 18:15:49;;;;;;;3.35;1.25;;;23.70;52.80;;;;;;5146872;27;20501;-50
2022/04/21 18:18:16;;;;;;;2.30;1.10;;;23.70;52.80;;;;;;5061718;28;20037;-52
2022/04/21 18:20:42;;;;;;;3.10;1.15;;;23.70;52.80;;;;;;5060866;28;20029;-48
2022/04/21 18:23:08;;;;;;;3.47;1.40;;;23.70;52.90;;;;;;5061425;28;20036;-49
2022/04/21 18:25:35;;;;;;;2.97;1.20;;;23.70;52.90;;;;;;5060407;28;20037;-50
2022/04/21 18:28:01;;;;;;;2.25;0.93;;;23.80;53.00;;;;;;5061586;28;20092;-47
2022/04/21 18:30:27;;;;;;;2.53;1.13;;;23.80;53.10;;;;;;5061241;28;20100;-47
2022/04/21 18:32:54;;;;;;;3.20;0.90;;;23.80;53.10;;;;;;5044588;28;20029;-48
2022/04/21 18:35:20;;;;;;;2.08;1.25;;;23.80;53.10;;;;;;5044011;28;20033;-47
2022/04/21 18:37:46;;;;;;;2.20;1.05;;;23.80;53.20;;;;;;5061217;28;20033;-52
2022/04/21 18:40:12;;;;;;;3.05;1.38;;;23.80;53.20;;;;;;5060383;28;20025;-52
2022/04/21 18:42:42;;;;;;;1.60;1.02;;;23.80;53.20;;;;;;5060578;28;20036;-48
2022/04/21 18:45:08;;;;;;;2.25;1.10;;;23.90;53.30;;;;;;5056301;28;20029;-48
2022/04/21 18:47:34;;;;;;;3.88;1.20;;;23.90;53.40;;;;;;5061079;28;20195;-47
2022/04/21 18:50:00;;;;;;;3.05;1.20;;;23.90;53.40;;;;;;5060374;28;20063;-47
2022/04/21 18:52:26;;;;;;;1.85;0.90;;;23.90;53.40;;;;;;5060786;28;20067;-49
2022/04/21 18:54:55;;;;;;;2.83;1.10;;;23.90;53.40;;;;;;5085460;27;20032;-48
2022/04/21 18:57:21;;;;;;;2.78;1.20;;;24.00;53.50;;;;;;5163061;27;20042;-49
2022/04/21 18:59:47;;;;;;;1.93;1.00;;;24.00;53.50;;;;;;5165463;27;20023;-48
2022/04/21 19:02:13;;;;;;;2.78;1.00;;;24.00;53.50;;;;;;5161811;27;20321;-48
2022/04/21 19:04:39;;;;;;;2.20;1.20;;;24.00;53.60;;;;;;5165135;27;20030;-47
2022/04/21 19:07:06;;;;;;;2.88;1.10;;;24.00;53.60;;;;;;5165550;27;20027;-48
2022/04/21 19:12:16;;;;;;;2.22;1.20;;;24.10;53.70;;;;;;5164686;27;20042;-50
2022/04/21 19:14:51;;;;;;;2.97;1.13;;;24.10;53.80;;;;;;5152270;27;20779;-50
2022/04/21 19:17:17;;;;;;;2.72;1.10;;;24.10;53.80;;;;;;5164315;27;20073;-53
2022/04/21 19:19:43;;;;;;;3.97;1.10;;;24.10;53.80;;;;;;5164173;27;20026;-50
2022/04/21 19:22:10;;;;;;;3.47;1.25;;;24.10;53.80;;;;;;5163663;27;20043;-50
2022/04/21 19:24:36;;;;;;;4.70;1.25;;;24.10;53.80;;;;;;5155876;27;20089;-47
2022/04/21 19:27:03;;;;;;;2.17;1.10;;;24.20;53.80;;;;;;5155745;27;20628;-51
2022/04/21 19:29:29;;;;;;;3.20;1.13;;;24.20;53.90;;;;;;5164736;27;20050;-50
2022/04/21 19:31:59;;;;;;;2.45;1.20;;;24.20;53.70;;;;;;5164484;27;20034;-50
2022/04/21 19:34:25;;;;;;;3.75;1.30;;;24.20;53.90;;;;;;5163778;27;20022;-48
2022/04/21 19:36:51;;;;;;;4.18;1.20;;;24.30;53.90;;;;;;5164636;27;20098;-49
2022/04/21 19:39:18;;;;;;;2.22;1.15;;;24.30;53.90;;;;;;5159911;27;20052;-48
2022/04/21 19:41:44;;;;;;;2.08;1.00;;;24.30;53.90;;;;;;5165045;27;20030;-50
2022/04/21 19:44:10;;;;;;;2.17;1.05;;;24.30;53.90;;;;;;5164385;27;20019;-48
2022/04/21 19:46:36;;;;;;;2.13;1.10;;;24.30;53.90;;;;;;5165186;27;20030;-48
2022/04/21 19:49:03;;;;;;;2.83;1.17;;;24.30;53.90;;;;;;5164918;27;20022;-47
2022/04/21 19:51:29;;;;;;;1.23;1.00;;;24.40;53.90;;;;;;5164248;27;20072;-49
2022/04/21 19:53:55;;;;;;;2.17;1.08;;;24.40;53.90;;;;;;5163907;27;20062;-48
2022/04/21 19:56:21;;;;;;;3.72;0.90;;;24.40;53.90;;;;;;5164435;27;20045;-47
2022/04/21 19:58:47;;;;;;;3.00;1.00;;;24.40;53.90;;;;;;5164327;27;20571;-48
2022/04/21 20:01:13;;;;;;;1.85;1.05;;;24.50;53.80;;;;;;5164415;27;20045;-46
2022/04/21 20:03:40;;;;;;;2.08;1.15;;;24.50;53.80;;;;;;5164432;27;20034;-51
2022/04/21 20:08:57;;;;;;;1.75;1.10;;;24.50;53.70;;;;;;5164580;27;20094;-48
2022/04/21 20:11:28;;;;;;;1.27;0.80;;;24.50;53.80;;;;;;5164484;27;20042;-48
2022/04/21 20:13:55;;;;;;;2.65;1.20;;;24.60;53.70;;;;;;5164096;27;20053;-48
2022/04/21 20:16:21;;;;;;;2.17;0.82;;;24.60;53.60;;;;;;5164325;27;20057;-50
2022/04/21 20:22:13;;;;;;;1.77;1.20;;;24.60;53.70;;;;;;5164399;27;20022;-50
2022/04/21 20:26:37;;;;;;;1.38;0.93;;;24.60;53.50;;;;;;5157900;27;20107;-49
2022/04/21 20:27:05;;;;;;;1.50;0.70;;;24.60;53.40;;;;;;5159140;27;20026;-50
2022/04/21 20:29:32;;;;;;;2.15;0.90;;;24.70;53.40;;;;;;5163746;27;20058;-52
2022/04/21 20:31:58;;;;;;;1.88;1.02;;;24.70;53.30;;;;;;5164324;27;20031;-48
2022/04/21 20:34:24;;;;;;;1.90;0.80;;;24.70;53.30;;;;;;5163858;27;20046;-49
2022/04/21 20:36:50;;;;;;;2.08;1.05;;;24.70;53.20;;;;;;5164153;27;20290;-51
2022/04/21 20:39:16;;;;;;;1.70;0.90;;;24.70;53.10;;;;;;5164235;27;20605;-48
2022/04/21 20:41:43;;;;;;;2.92;1.33;;;24.70;53.00;;;;;;5164244;27;20057;-49
2022/04/21 20:44:09;;;;;;;1.58;0.90;;;24.80;53.00;;;;;;5163981;27;20026;-51
2022/04/21 20:46:35;;;;;;;1.93;0.87;;;24.80;52.90;;;;;;5163553;27;20059;-50
2022/04/21 20:49:01;;;;;;;1.48;0.98;;;24.80;52.80;;;;;;5147903;27;20062;-52
2022/04/21 20:51:28;;;;;;;2.38;0.93;;;24.80;52.80;;;;;;5143089;28;20031;-51
2022/04/21 20:53:54;;;;;;;2.08;1.15;;;24.80;52.70;;;;;;5142933;27;20032;-47
2022/04/21 20:56:20;;;;;;;1.65;0.82;;;24.80;52.60;;;;;;5152601;27;20039;-49
2022/04/21 20:58:47;;;;;;;1.30;0.90;;;24.90;52.50;;;;;;5163858;27;20045;-51
2022/04/21 21:01:13;;;;;;;2.80;1.10;;;24.90;52.50;;;;;;5131308;27;20719;-49
2022/04/21 21:03:39;;;;;;;1.67;0.70;;;24.90;52.40;;;;;;5125813;27;20035;-47
2022/04/21 21:06:05;;;;;;;2.10;0.90;;;24.90;52.30;;;;;;5164885;27;20037;-50
2022/04/21 21:08:32;;;;;;;1.52;0.80;;;24.90;52.20;;;;;;5167745;27;20266;-52
2022/04/21 21:10:58;;;;;;;1.47;0.80;;;24.90;52.10;;;;;;5167623;27;20056;-51
2022/04/21 21:13:25;;;;;;;2.10;0.90;;;24.90;52.10;;;;;;5167287;27;20042;-51
2022/04/21 21:15:51;;;;;;;1.00;0.82;;;24.90;52.00;;;;;;5167143;27;20046;-48
2022/04/21 21:18:18;;;;;;;2.13;0.80;;;24.90;51.90;;;;;;5167571;27;20030;-48
2022/04/21 21:20:45;;;;;;;1.42;0.80;;;25.00;51.80;;;;;;5167130;27;20019;-48
2022/04/21 21:23:11;;;;;;;0.95;0.80;;;25.00;51.70;;;;;;5167624;27;20031;-51
2022/04/21 21:25:37;;;;;;;2.47;0.95;;;25.00;51.70;;;;;;5152575;27;20046;-51
2022/04/21 21:28:04;;;;;;;1.92;0.80;;;25.00;51.60;;;;;;5148762;27;20055;-48
2022/04/21 21:30:30;;;;;;;1.67;0.90;;;25.00;51.50;;;;;;5167228;27;20130;-48
2022/04/21 21:32:56;;;;;;;2.92;0.98;;;25.00;51.50;;;;;;5167278;27;20061;-48
2022/04/21 21:35:22;;;;;;;0.98;0.70;;;25.00;51.30;;;;;;5166984;27;20022;-48
2022/04/21 21:37:49;;;;;;;1.30;0.90;;;25.00;51.30;;;;;;5167115;27;20038;-49
2022/04/21 21:40:15;;;;;;;1.48;0.80;;;25.00;51.20;;;;;;5167211;27;20027;-48
2022/04/21 21:42:42;;;;;;;1.17;0.80;;;25.00;51.10;;;;;;5167104;27;20054;-51
2022/04/21 21:45:09;;;;;;;1.73;0.80;;;25.00;51.00;;;;;;5166781;27;20035;-48
2022/04/21 21:47:37;;;;;;;0.95;0.68;;;25.00;50.90;;;;;;5163504;27;20031;-48
2022/04/21 21:52:54;;;;;;;1.15;0.80;;;25.00;50.70;;;;;;5145671;27;20030;-49
2022/04/21 21:55:24;;;;;;;1.55;0.75;;;25.00;50.60;;;;;;5146951;27;20038;-49
2022/04/21 21:57:51;;;;;;;1.85;0.90;;;25.00;50.50;;;;;;5146143;27;20035;-50
2022/04/21 22:00:20;;;;;;;2.00;0.73;;;25.10;50.50;;;;;;5165814;27;20027;-50
2022/04/21 22:02:46;;;;;;;1.70;0.98;;;25.10;50.50;;;;;;5166691;27;20035;-50
2022/04/21 22:05:13;;;;;;;1.07;0.70;;;25.10;50.30;;;;;;5166302;27;20157;-49
2022/04/21 22:07:39;;;;;;;1.08;0.82;;;25.10;50.30;;;;;;5166483;27;20023;-51
2022/04/21 22:10:06;;;;;;;1.55;0.88;;;25.10;50.20;;;;;;5166593;27;20023;-51
2022/04/21 22:12:34;;;;;;;1.92;0.75;;;25.10;50.10;;;;;;5166431;27;20031;-48
2022/04/21 22:15:01;;;;;;;2.00;0.80;;;25.10;50.00;;;;;;5153927;27;20035;-58
2022/04/21 22:17:27;;;;;;;1.30;0.75;;;25.10;49.90;;;;;;5147654;27;20079;-52
2022/04/21 22:19:53;;;;;;;1.15;0.68;;;25.10;49.90;;;;;;5165803;27;20019;-48
2022/04/21 22:22:19;;;;;;;1.55;0.75;;;25.10;49.80;;;;;;5164396;27;20090;-51
2022/04/21 22:24:45;;;;;;;1.30;0.88;;;25.10;49.70;;;;;;5164771;27;20059;-53
2022/04/21 22:27:11;;;;;;;1.20;0.90;;;25.10;49.60;;;;;;5166081;27;20027;-49
2022/04/21 22:29:37;;;;;;;1.33;0.88;;;25.10;49.60;;;;;;5166086;27;20030;-49
2022/04/21 22:32:04;;;;;;;0.98;0.77;;;25.10;49.50;;;;;;5165930;27;20019;-47
2022/04/21 22:34:30;;;;;;;0.85;0.80;;;25.10;49.40;;;;;;5165528;27;20026;-48
2022/04/21 22:36:56;;;;;;;3.10;0.88;;;25.10;49.40;;;;;;5165371;27;20035;-50
2022/04/21 22:39:22;;;;;;;1.10;0.68;;;25.10;49.40;;;;;;5165740;27;20044;-52
2022/04/21 22:41:48;;;;;;;1.85;0.80;;;25.10;49.30;;;;;;5165992;27;20504;-51
2022/04/21 22:44:14;;;;;;;1.90;0.85;;;25.10;49.20;;;;;;5165402;27;20155;-50
2022/04/21 22:46:41;;;;;;;1.58;0.90;;;25.10;49.30;;;;;;5165509;27;20034;-52
2022/04/21 22:49:07;;;;;;;1.35;0.82;;;25.10;49.10;;;;;;5165703;27;20133;-49
2022/04/21 22:51:33;;;;;;;1.20;0.85;;;25.10;49.10;;;;;;5165376;27;20086;-48
2022/04/21 22:53:59;;;;;;;1.50;0.90;;;25.10;49.10;;;;;;5161572;27;20044;-52
2022/04/21 22:56:25;;;;;;;1.10;0.90;;;25.10;49.00;;;;;;5154460;27;20782;-51
2022/04/21 22:58:51;;;;;;;1.25;0.88;;;25.10;49.00;;;;;;5165230;27;20030;-52
2022/04/21 23:01:17;;;;;;;1.63;0.90;;;25.00;48.90;;;;;;5165378;27;20060;-53
2022/04/21 23:03:43;;;;;;;1.00;0.82;;;25.10;48.90;;;;;;5165173;27;20027;-51
2022/04/21 23:06:09;;;;;;;1.70;1.00;;;25.00;48.80;;;;;;5164847;27;20033;-49
2022/04/21 23:13:28;;;;;;;1.15;0.90;;;25.00;48.80;;;;;;5165352;27;20030;-51
2022/04/21 23:14:06;;;;;;;1.10;0.90;;;25.00;48.80;;;;;;5164865;27;20025;-52
2022/04/21 23:16:32;;;;;;;1.38;0.82;;;25.00;48.70;;;;;;5145881;27;20078;-49
2022/04/21 23:18:58;;;;;;;3.10;1.02;;;25.00;48.70;;;;;;5149440;27;20086;-52
2022/04/21 23:21:25;;;;;;;2.93;0.80;;;25.00;48.70;;;;;;5144151;27;20039;-50
2022/04/21 23:23:51;;;;;;;1.38;0.80;;;25.00;48.60;;;;;;5144322;27;20023;-52
2022/04/21 23:26:17;;;;;;;0.98;0.75;;;25.00;48.60;;;;;;5152108;27;20030;-51
2022/04/21 23:28:43;;;;;;;2.05;1.05;;;25.00;48.60;;;;;;5161696;27;20027;-52
2022/04/21 23:31:09;;;;;;;1.55;0.77;;;25.00;48.60;;;;;;5164802;27;20486;-48
2022/04/21 23:33:35;;;;;;;1.42;1.10;;;25.00;48.60;;;;;;5146200;27;20129;-52
2022/04/21 23:36:01;;;;;;;1.80;1.02;;;25.00;48.60;;;;;;5164170;27;20562;-50
2022/04/21 23:38:27;;;;;;;1.92;1.00;;;25.00;48.50;;;;;;5164802;27;20030;-50
2022/04/21 23:40:55;;;;;;;1.25;0.85;;;25.00;48.50;;;;;;5164678;27;20050;-50
2022/04/21 23:43:21;;;;;;;1.55;1.00;;;25.00;48.50;;;;;;5164807;27;20029;-52
2022/04/21 23:45:47;;;;;;;1.00;0.82;;;25.00;48.50;;;;;;5164290;27;20023;-52
2022/04/21 23:48:14;;;;;;;1.08;0.80;;;25.00;48.50;;;;;;5164712;27;20031;-52
2022/04/21 23:50:40;;;;;;;1.23;1.00;;;25.00;48.40;;;;;;5145940;27;20078;-51
2022/04/21 23:53:06;;;;;;;1.63;0.90;;;25.00;48.40;;;;;;5164212;27;20038;-48
2022/04/21 23:55:32;;;;;;;1.00;0.82;;;25.00;48.40;;;;;;5149614;27;20031;-52
2022/04/21 23:57:58;;;;;;;2.17;1.08;;;25.00;48.40;;;;;;5164239;27;20771;-51
